METAR Data
IDs: Format: Raw Decoded Include TAF

Data at: 0004 UTC 26 Oct 2021

KHDO 252351Z AUTO 13008KT 10SM CLR 30/21 A2991 RMK AO2 SLP112 T03000211 10339 20300 53002
KHDO 252251Z AUTO 14009KT 10SM CLR 32/20 A2990 RMK AO2 SLP107 T03170200
KHDO 252151Z AUTO 17008KT 10SM CLR 33/20 A2990 RMK AO2 SLP107 T03330200
KHDO 252051Z AUTO 11009KT 10SM CLR 33/21 A2990 RMK AO2 SLP110 T03330206 56024
KHDO 251951Z AUTO 17010KT 10SM CLR 33/21 A2992 RMK AO2 SLP114 T03280211
KHDO 251851Z AUTO 17007KT 150V210 10SM CLR 32/22 A2994 RMK AO2 SLP123 T03220222
KHDO 251751Z AUTO 15004KT 10SM CLR 31/22 A2998 RMK AO2 SLP135 T03060222 10311 20222 58006
KHDO 251651Z AUTO 12003KT 10SM CLR 28/23 A2999 RMK AO2 SLP138 T02830228
KHDO 251559Z AUTO 00000KT 10SM SCT008 26/22 A2999 RMK AO2 T02560222
KHDO 251551Z AUTO 23003KT 10SM BKN008 26/22 A3000 RMK AO2 CIG 006V010 SLP142 T02560222
KHDO 251535Z AUTO 22003KT 10SM OVC006 24/22 A3000 RMK AO2 CIG 004V008 T02440222
KHDO 251451Z AUTO 00000KT 6SM BR OVC003 23/22 A2999 RMK AO2 SLP143 T02280222 53018
KHDO 251417Z AUTO 19004KT 8SM OVC002 23/22 A2998 RMK AO2 CIG 002V006 T02280222
KHDO 251409Z AUTO 23003KT 2 1/2SM BR OVC002 23/23 A2998 RMK AO2 T02280228
KHDO 251401Z AUTO 00000KT 1 1/4SM BR OVC002 23/22 A2998 RMK AO2 T02280222
KHDO 251351Z AUTO 00000KT 3/4SM BR OVC002 23/23 A2998 RMK AO2 SLP136 T02280228
KHDO 251330Z AUTO 00000KT 3/4SM BR OVC002 23/22 A2997 RMK AO2 T02280222
KHDO 251315Z AUTO 00000KT 1/4SM FG VV003 23/22 A2997 RMK AO2 T02280222
KHDO 251251Z AUTO 00000KT 1/2SM FG VV003 22/22 A2996 RMK AO2 SLP129 T02220217
KHDO 251151Z AUTO 00000KT 1/2SM FG VV002 23/22 A2994 RMK AO2 SLP122 T02280222 10233 20200 53001
KHDO 251114Z AUTO 19003KT 1/2SM FG VV002 23/22 A2994 RMK AO2 T02280222
KHDO 251051Z AUTO 00000KT 1/4SM FG VV002 23/22 A2993 RMK AO2 SLP120 T02280222
KHDO 251007Z AUTO 14003KT 3/4SM BR OVC003 23/22 A2993 RMK AO2 T02280222
KHDO 251001Z AUTO 15003KT 1 3/4SM BR OVC003 23/22 A2993 RMK AO2 T02280222
KHDO 250951Z AUTO 00000KT 10SM OVC003 22/21 A2993 RMK AO2 SLP119 T02220211
KHDO 250937Z AUTO 00000KT 10SM OVC004 22/21 A2993 RMK AO2 T02220211
KHDO 250919Z AUTO 00000KT 10SM OVC005 21/21 A2993 RMK AO2 T02110206
KHDO 250901Z AUTO 04004KT 10SM BKN006 21/19 A2993 RMK AO2 T02060194
KHDO 250851Z AUTO 04004KT 10SM SCT007 20/19 A2993 RMK AO2 SLP122 T02000189 53003
KHDO 250751Z AUTO 00000KT 10SM CLR 21/20 A2993 RMK AO2 SLP120 T02110200
KHDO 250651Z AUTO 00000KT 10SM CLR 23/21 A2993 RMK AO2 SLP119 T02280211
KHDO 250551Z AUTO 16006KT 10SM CLR 23/22 A2993 RMK AO2 SLP120 T02330217 10289 20228 403220217 51017
KHDO 250451Z AUTO 15007KT 10SM CLR 24/21 A2992 RMK AO2 SLP117 T02390211
KHDO 250351Z AUTO 14006KT 10SM CLR 24/21 A2989 RMK AO2 SLP108 T02440206
KHDO 250251Z AUTO 13006KT 10SM CLR 24/20 A2988 RMK AO2 SLP103 T02390200 51019
KHDO 250151Z AUTO 05004KT 10SM CLR 24/20 A2986 RMK AO2 SLP098 T02440200
KHDO 250051Z AUTO 08005KT 10SM CLR 27/20 A2984 RMK AO2 SLP088 T02670200
KHDO 242351Z AUTO 09005KT 10SM FEW048 29/21 A2982 RMK AO2 SLP081 60000 T02890206 10322 20239 53002
KHDO 242251Z AUTO 10004KT 10SM FEW045 31/21 A2982 RMK AO2 SLP081 T03110206
KHDO 242151Z AUTO 10003KT 10SM FEW043 31/21 A2981 RMK AO2 SLP077 T03110206
KHDO 242051Z AUTO VRB03KT 10SM SCT035 30/21 A2981 RMK AO2 SLP079 60000 T03000206 56027
KHDO 241958Z AUTO 17007KT 10SM SCT025 28/21 A2982 RMK AO2 T02830206
KHDO 241951Z AUTO 17009G15KT 10SM BKN025 29/21 A2982 RMK AO2 SLP081 T02940211
KHDO 241936Z AUTO 18009KT 10SM BKN024 29/22 A2982 RMK AO2 T02940217
KHDO 241928Z AUTO 15004KT 10SM SCT026 29/21 A2983 RMK AO2 T02890211
KHDO 241851Z AUTO 17006KT 10SM FEW013 OVC029 27/21 A2985 RMK AO2 RAE1759 SLP094 P0000 T02670211
KHDO 241806Z AUTO 21003KT 9SM SCT013 BKN020 OVC031 24/22 A2988 RMK AO2 RAE1759 P0000 T02390217
KHDO 241751Z AUTO 21004KT 4SM -RA BR OVC012 24/22 A2990 RMK AO2 RAB48 SLP109 P0000 60000 T02390217 10250 20217 50002
KHDO 241651Z AUTO 25007KT 10SM OVC012 25/21 A2991 RMK AO2 SLP113 T02500211
KHDO 241551Z AUTO 21007KT 10SM OVC011 24/21 A2989 RMK AO2 SLP109 T02440211
KHDO 241451Z AUTO 17008KT 10SM OVC012 24/21 A2989 RMK AO2 SLP106 T02390211 53014
KHDO 241437Z AUTO 16009KT 10SM BKN010 OVC015 24/21 A2988 RMK AO2 CIG 008V012 T02390211
KHDO 241351Z AUTO 15006KT 10SM FEW009 OVC015 23/22 A2986 RMK AO2 SLP097 T02280217
KHDO 241346Z AUTO 14006KT 10SM FEW009 OVC015 23/21 A2986 RMK AO2
KHDO 241251Z AUTO 08004KT 10SM OVC009 22/21 A2984 RMK AO2 SLP091 T02170206
KHDO 241232Z AUTO 13003KT 10SM BKN009 22/21 A2984 RMK AO2 T02170206
KHDO 241221Z AUTO 13004KT 10SM SCT010 SCT015 22/21 A2984 RMK AO2 T02170206